createdAt,value
2023-04-28T00:00:05.991Z,11.68
2023-04-28T00:02:54.398Z,11.50
2023-04-28T00:05:25.908Z,11.50
2023-04-28T00:07:54.335Z,11.48
2023-04-28T00:10:22.806Z,11.40
2023-04-28T00:12:51.266Z,11.30
2023-04-28T00:15:19.760Z,11.30
2023-04-28T00:17:48.342Z,11.30
2023-04-28T00:20:16.919Z,11.40
2023-04-28T00:22:45.374Z,11.40
2023-04-28T00:25:13.740Z,11.40
2023-04-28T00:27:42.036Z,11.40
2023-04-28T00:30:11.096Z,11.40
2023-04-28T00:32:39.449Z,11.30
2023-04-28T00:35:08.115Z,11.30
2023-04-28T00:37:37.918Z,11.30
2023-04-28T00:40:07.092Z,11.20
2023-04-28T00:42:35.560Z,11.20
2023-04-28T00:45:07.350Z,11.06
2023-04-28T00:47:37.239Z,11.02
2023-04-28T00:50:06.786Z,10.94
2023-04-28T00:52:35.301Z,10.90
2023-04-28T00:55:04.758Z,10.90
2023-04-28T00:57:33.133Z,10.86
2023-04-28T01:00:01.799Z,10.90
2023-04-28T01:02:31.546Z,10.90
2023-04-28T01:05:01.096Z,10.90
2023-04-28T01:07:30.034Z,10.90
2023-04-28T01:09:58.667Z,10.90
2023-04-28T01:12:31.117Z,10.90
2023-04-28T01:15:00.267Z,10.90
2023-04-28T01:17:29.350Z,10.90
2023-04-28T01:19:58.095Z,10.90
2023-04-28T01:22:26.589Z,10.80
2023-04-28T01:24:55.008Z,10.78
2023-04-28T01:27:24.609Z,10.74
2023-04-28T01:29:53.131Z,10.70
2023-04-28T01:32:21.534Z,10.70
2023-04-28T01:34:50.049Z,10.72
2023-04-28T01:37:18.503Z,10.78
2023-04-28T01:39:46.853Z,10.74
2023-04-28T01:42:15.244Z,10.80
2023-04-28T01:44:43.656Z,10.76
2023-04-28T01:47:12.563Z,10.80
2023-04-28T01:49:41.057Z,10.80
2023-04-28T01:52:09.524Z,10.88
2023-04-28T01:54:38.166Z,10.90
2023-04-28T01:57:06.625Z,10.90
2023-04-28T01:59:35.141Z,10.90
2023-04-28T02:02:03.675Z,10.90
2023-04-28T02:04:32.131Z,10.90
2023-04-28T02:07:00.602Z,10.86
2023-04-28T02:09:28.964Z,10.90
2023-04-28T02:12:00.414Z,10.86
2023-04-28T02:14:29.738Z,10.82
2023-04-28T02:16:59.573Z,10.80
2023-04-28T02:19:27.958Z,10.80
2023-04-28T02:21:56.291Z,10.80
2023-04-28T02:24:24.780Z,10.80
2023-04-28T02:26:53.878Z,10.80
2023-04-28T02:29:22.320Z,10.80
2023-04-28T02:31:50.750Z,10.70
2023-04-28T02:34:20.106Z,10.70
2023-04-28T02:36:48.666Z,10.62
2023-04-28T02:39:17.351Z,10.60
2023-04-28T02:41:45.869Z,10.60
2023-04-28T02:44:14.479Z,10.60
2023-04-28T02:46:43.242Z,10.60
2023-04-28T02:49:11.725Z,10.60
2023-04-28T02:51:40.438Z,10.60
2023-04-28T02:54:09.044Z,10.60
2023-04-28T02:56:37.848Z,10.60
2023-04-28T02:59:06.677Z,10.58
2023-04-28T03:01:35.272Z,10.50
2023-04-28T03:04:04.013Z,10.50
2023-04-28T03:06:33.151Z,10.50
2023-04-28T03:09:01.822Z,10.50
2023-04-28T03:11:30.227Z,10.50
2023-04-28T03:13:58.805Z,10.50
2023-04-28T03:16:27.800Z,10.50
2023-04-28T03:18:56.261Z,10.50
2023-04-28T03:21:26.875Z,10.50
2023-04-28T03:23:55.264Z,10.40
2023-04-28T03:26:23.884Z,10.40
2023-04-28T03:28:53.321Z,10.40
2023-04-28T03:31:21.881Z,10.40
2023-04-28T03:33:50.391Z,10.34
2023-04-28T03:36:18.885Z,10.30
2023-04-28T03:38:47.262Z,10.30
2023-04-28T03:41:15.741Z,10.22
2023-04-28T03:44:13.024Z,10.22
2023-04-28T03:46:49.007Z,10.20
2023-04-28T03:49:17.533Z,10.20
2023-04-28T03:51:45.985Z,10.20
2023-04-28T03:54:14.517Z,10.20
2023-04-28T03:56:44.338Z,10.20
2023-04-28T03:59:13.342Z,10.20
2023-04-28T04:01:41.727Z,10.12
2023-04-28T04:04:10.408Z,10.12
2023-04-28T04:06:39.047Z,10.14
2023-04-28T04:09:08.045Z,10.10
2023-04-28T04:11:36.427Z,10.10
2023-04-28T04:14:04.945Z,10.10
2023-04-28T04:16:33.539Z,10.10
2023-04-28T04:19:02.050Z,10.10
2023-04-28T04:21:42.048Z,10.10
2023-04-28T04:24:10.546Z,10.10
2023-04-28T04:26:39.384Z,10.10
2023-04-28T04:29:28.775Z,10.04
2023-04-28T04:31:57.789Z,10.00
2023-04-28T04:34:26.260Z,9.90
2023-04-28T04:36:54.801Z,9.90
2023-04-28T04:39:23.826Z,9.90
2023-04-28T04:41:52.757Z,9.90
2023-04-28T04:44:50.182Z,9.90
2023-04-28T04:47:38.955Z,10.00
2023-04-28T04:50:08.318Z,9.98
2023-04-28T04:52:37.592Z,10.00
2023-04-28T04:55:06.803Z,10.04
2023-04-28T04:57:35.315Z,10.08
2023-04-28T05:00:27.158Z,10.10
2023-04-28T05:02:55.741Z,10.10
2023-04-28T05:05:24.363Z,10.10
2023-04-28T05:08:07.186Z,10.12
2023-04-28T05:10:36.342Z,10.10
2023-04-28T05:13:05.058Z,10.10
2023-04-28T05:15:33.461Z,10.10
2023-04-28T05:18:25.186Z,10.10
2023-04-28T05:20:53.584Z,10.20
2023-04-28T05:23:22.054Z,10.22
2023-04-28T05:25:50.587Z,10.30
2023-04-28T05:28:21.296Z,10.40
2023-04-28T05:30:51.488Z,10.50
2023-04-28T05:33:20.135Z,10.64
2023-04-28T05:35:49.179Z,10.80
2023-04-28T05:38:17.762Z,10.90
2023-04-28T05:40:46.358Z,11.00
2023-04-28T05:43:15.030Z,11.10
2023-04-28T05:45:43.770Z,11.24
2023-04-28T05:48:12.616Z,11.30
2023-04-28T05:50:41.250Z,11.38
2023-04-28T05:53:09.713Z,11.40
2023-04-28T05:55:39.057Z,11.40
2023-04-28T05:58:08.256Z,11.40
2023-04-28T06:00:36.891Z,11.50
2023-04-28T06:03:05.769Z,11.58
2023-04-28T06:05:34.796Z,11.70
2023-04-28T06:08:03.786Z,11.80
2023-04-28T06:10:33.105Z,11.90
2023-04-28T06:13:02.707Z,12.00
2023-04-28T06:15:31.210Z,12.04
2023-04-28T06:17:59.675Z,12.00
2023-04-28T06:20:28.118Z,12.00
2023-04-28T06:22:56.569Z,12.14
2023-04-28T06:25:25.096Z,12.24
2023-04-28T06:27:53.617Z,12.40
2023-04-28T06:30:23.538Z,12.50
2023-04-28T06:32:52.546Z,12.60
2023-04-28T06:35:21.006Z,12.60
2023-04-28T06:37:49.533Z,12.70
2023-04-28T06:40:18.069Z,12.70
2023-04-28T06:43:09.098Z,12.70
2023-04-28T06:45:42.446Z,12.80
2023-04-28T06:48:11.128Z,12.80
2023-04-28T06:50:41.761Z,12.80
2023-04-28T06:53:12.670Z,12.90
2023-04-28T06:55:41.236Z,12.98
2023-04-28T06:58:10.081Z,12.82
2023-04-28T07:00:38.621Z,12.90
2023-04-28T07:03:07.168Z,13.00
2023-04-28T07:05:36.485Z,13.00
2023-04-28T07:08:05.053Z,13.04
2023-04-28T07:10:33.513Z,13.10
2023-04-28T07:13:02.135Z,13.10
2023-04-28T07:15:31.540Z,13.20
2023-04-28T07:17:59.999Z,13.30
2023-04-28T07:20:28.432Z,13.30
2023-04-28T07:22:56.857Z,13.30
2023-04-28T07:25:25.355Z,13.18
2023-04-28T07:27:54.547Z,13.20
2023-04-28T07:30:27.852Z,13.20
2023-04-28T07:32:56.979Z,13.20
2023-04-28T07:35:26.252Z,13.20
2023-04-28T07:37:55.060Z,13.20
2023-04-28T07:40:23.708Z,13.20
2023-04-28T07:42:52.272Z,13.18
2023-04-28T07:45:20.700Z,13.18
2023-04-28T07:47:49.083Z,13.20
2023-04-28T07:50:18.313Z,13.20
2023-04-28T07:52:46.811Z,13.22
2023-04-28T07:55:15.358Z,13.20
2023-04-28T07:57:43.719Z,13.22
2023-04-28T08:00:12.820Z,13.36
2023-04-28T08:02:41.700Z,13.48
2023-04-28T08:05:11.102Z,13.60
2023-04-28T08:07:39.622Z,13.66
2023-04-28T08:10:26.798Z,13.60
2023-04-28T08:13:13.166Z,13.50
2023-04-28T08:16:01.068Z,13.50
2023-04-28T08:18:47.498Z,13.40
2023-04-28T08:21:34.428Z,13.40
2023-04-28T08:24:02.866Z,13.50
2023-04-28T08:26:31.504Z,13.70
2023-04-28T08:28:59.962Z,13.74
2023-04-28T08:31:28.987Z,13.80
2023-04-28T08:33:57.549Z,13.70
2023-04-28T08:36:29.294Z,13.70
2023-04-28T08:38:59.661Z,13.70
2023-04-28T08:41:33.285Z,13.70
2023-04-28T08:44:02.044Z,13.70
2023-04-28T08:46:34.906Z,13.70
2023-04-28T08:49:06.731Z,13.70
2023-04-28T08:51:40.898Z,13.70
2023-04-28T08:54:25.442Z,13.86
2023-04-28T08:56:57.250Z,14.00
2023-04-28T08:59:26.957Z,14.20
2023-04-28T09:01:55.408Z,14.20
2023-04-28T09:04:24.201Z,14.10
2023-04-28T09:06:53.089Z,14.10
2023-04-28T09:09:26.147Z,13.96
2023-04-28T09:12:02.037Z,13.90
2023-04-28T09:14:36.533Z,14.00
2023-04-28T09:17:13.236Z,14.08
2023-04-28T09:19:44.903Z,14.20
2023-04-28T09:24:44.767Z,14.48
2023-04-28T09:27:15.069Z,14.60
2023-04-28T09:29:54.160Z,14.80
2023-04-28T09:32:24.115Z,15.00
2023-04-28T09:34:56.955Z,15.10
2023-04-28T09:37:32.977Z,15.20
2023-04-28T09:40:10.138Z,15.28
2023-04-28T09:42:48.093Z,15.30
2023-04-28T09:45:17.345Z,15.20
2023-04-28T09:47:48.371Z,15.20
2023-04-28T09:50:18.507Z,15.26
2023-04-28T09:53:08.174Z,15.30
2023-04-28T09:56:04.518Z,15.30
2023-04-28T09:58:35.493Z,15.20
2023-04-28T10:01:06.891Z,15.10
2023-04-28T10:03:35.738Z,15.10
2023-04-28T10:06:04.665Z,15.10
2023-04-28T10:08:33.720Z,15.10
2023-04-28T10:11:02.500Z,15.00
2023-04-28T10:13:31.429Z,15.02
2023-04-28T10:16:00.590Z,15.10
2023-04-28T10:18:30.573Z,15.28
2023-04-28T10:21:03.311Z,15.30
2023-04-28T10:23:54.241Z,15.30
2023-04-28T10:27:04.094Z,15.20
2023-04-28T10:29:33.825Z,15.18
2023-04-28T10:32:24.696Z,15.30
2023-04-28T10:34:53.581Z,15.40
2023-04-28T10:38:00.248Z,15.50
2023-04-28T10:40:32.669Z,15.50
2023-04-28T10:43:01.371Z,15.50
2023-04-28T10:45:56.737Z,15.52
2023-04-28T10:48:37.783Z,15.70
2023-04-28T10:51:15.289Z,15.80
2023-04-28T10:53:47.335Z,15.80
2023-04-28T10:56:19.992Z,15.78
2023-04-28T10:58:58.250Z,15.80
2023-04-28T11:01:32.531Z,15.84
2023-04-28T11:04:13.941Z,15.90
2023-04-28T11:06:47.349Z,15.90
2023-04-28T11:09:15.840Z,15.90
2023-04-28T11:12:03.392Z,15.90
2023-04-28T11:14:35.870Z,15.90
2023-04-28T11:17:07.078Z,15.90
2023-04-28T11:19:40.955Z,16.10
2023-04-28T11:22:24.149Z,16.20
2023-04-28T11:24:58.331Z,16.30
2023-04-28T11:27:30.072Z,16.40
2023-04-28T11:29:59.428Z,16.40
2023-04-28T11:32:30.100Z,16.40
2023-04-28T11:35:00.559Z,16.40
2023-04-28T11:37:29.163Z,16.40
2023-04-28T11:39:57.674Z,16.50
2023-04-28T11:42:28.015Z,16.60
2023-04-28T11:44:56.634Z,16.50
2023-04-28T11:47:32.963Z,16.48
2023-04-28T11:50:03.238Z,16.48
2023-04-28T11:52:32.042Z,16.50
2023-04-28T11:55:02.537Z,16.60
2023-04-28T11:57:31.078Z,16.66
2023-04-28T12:00:19.795Z,16.56
2023-04-28T12:02:48.824Z,16.40
2023-04-28T12:05:17.686Z,16.48
2023-04-28T12:07:46.982Z,16.58
2023-04-28T12:10:17.402Z,16.70
2023-04-28T12:12:52.519Z,16.64
2023-04-28T12:15:50.779Z,16.50
2023-04-28T12:18:19.699Z,16.60
2023-04-28T12:20:48.094Z,16.60
2023-04-28T12:23:16.538Z,16.60
2023-04-28T12:25:46.516Z,16.60
2023-04-28T12:28:15.549Z,16.70
2023-04-28T12:30:44.202Z,16.74
2023-04-28T12:33:26.369Z,16.80
2023-04-28T12:35:56.774Z,16.90
2023-04-28T12:38:25.713Z,16.90
2023-04-28T12:40:54.161Z,17.00
2023-04-28T12:43:24.230Z,17.00
2023-04-28T12:45:54.614Z,17.00
2023-04-28T12:48:27.467Z,17.00
2023-04-28T12:50:55.950Z,17.08
2023-04-28T12:53:24.292Z,17.00
2023-04-28T12:55:53.151Z,17.08
2023-04-28T12:58:21.525Z,17.02
2023-04-28T13:00:49.869Z,16.96
2023-04-28T13:03:20.069Z,16.92
2023-04-28T13:05:48.830Z,17.00
2023-04-28T13:08:17.156Z,17.00
2023-04-28T13:10:45.809Z,16.90
2023-04-28T13:13:14.264Z,16.90
2023-04-28T13:15:42.721Z,16.80
2023-04-28T13:18:11.250Z,16.70
2023-04-28T13:20:40.110Z,16.78
2023-04-28T13:23:08.619Z,16.80
2023-04-28T13:25:37.030Z,16.80
2023-04-28T13:28:05.452Z,16.78
2023-04-28T13:30:35.075Z,16.74
2023-04-28T13:33:03.584Z,16.80
2023-04-28T13:35:31.988Z,16.80
2023-04-28T13:38:03.087Z,16.80
2023-04-28T13:40:32.343Z,16.80
2023-04-28T13:43:00.812Z,16.80
2023-04-28T13:45:29.235Z,16.70
2023-04-28T13:47:58.232Z,16.70
2023-04-28T13:50:27.071Z,16.70
2023-04-28T13:52:55.560Z,16.60
2023-04-28T13:55:27.924Z,16.50
2023-04-28T13:57:57.378Z,16.40
2023-04-28T14:00:26.014Z,16.40
2023-04-28T14:02:54.631Z,16.40
2023-04-28T14:05:23.104Z,16.40
2023-04-28T14:07:53.437Z,16.40
2023-04-28T14:10:22.606Z,16.40
2023-04-28T14:12:51.127Z,16.40
2023-04-28T14:15:19.778Z,16.40
2023-04-28T14:17:48.922Z,16.48
2023-04-28T14:20:18.021Z,16.40
2023-04-28T14:22:46.408Z,16.40
2023-04-28T14:25:14.967Z,16.40
2023-04-28T14:27:43.443Z,16.40
2023-04-28T14:30:12.233Z,16.40
2023-04-28T14:32:40.809Z,16.30
2023-04-28T14:35:10.273Z,16.30
2023-04-28T14:37:39.093Z,16.30
2023-04-28T14:40:08.596Z,16.30
2023-04-28T14:42:37.476Z,16.30
2023-04-28T14:45:08.013Z,16.22
2023-04-28T14:47:38.428Z,16.20
2023-04-28T14:50:08.099Z,16.20
2023-04-28T14:52:37.227Z,16.20
2023-04-28T14:55:05.988Z,16.20
2023-04-28T14:57:35.757Z,16.20
2023-04-28T15:00:07.278Z,16.10
2023-04-28T15:02:36.390Z,16.10
2023-04-28T15:05:06.206Z,16.10
2023-04-28T15:07:34.806Z,16.20
2023-04-28T15:10:03.252Z,16.20
2023-04-28T15:12:32.197Z,16.20
2023-04-28T15:15:00.720Z,16.20
2023-04-28T15:17:29.773Z,16.20
2023-04-28T15:19:58.376Z,16.20
2023-04-28T15:22:27.095Z,16.20
2023-04-28T15:24:56.269Z,16.16
2023-04-28T15:27:24.811Z,16.14
2023-04-28T15:29:53.450Z,16.16
2023-04-28T15:32:21.977Z,16.20
2023-04-28T15:34:50.690Z,16.20
2023-04-28T15:37:37.880Z,16.20
2023-04-28T15:40:07.336Z,16.20
2023-04-28T15:42:35.771Z,16.18
2023-04-28T15:45:04.889Z,16.14
2023-04-28T15:47:33.467Z,16.10
2023-04-28T15:50:02.324Z,16.14
2023-04-28T15:52:31.195Z,16.12
2023-04-28T15:55:01.085Z,16.10
2023-04-28T15:57:29.953Z,16.10
2023-04-28T15:59:58.584Z,16.08
2023-04-28T16:02:27.125Z,16.00
2023-04-28T16:04:55.636Z,16.00
2023-04-28T16:07:24.432Z,16.00
2023-04-28T16:09:53.798Z,15.90
2023-04-28T16:12:22.334Z,15.92
2023-04-28T16:14:53.579Z,15.92
2023-04-28T16:17:23.027Z,15.90
2023-04-28T16:19:51.772Z,15.90
2023-04-28T16:22:20.276Z,15.90
2023-04-28T16:24:48.870Z,15.90
2023-04-28T16:27:19.644Z,15.90
2023-04-28T16:29:48.038Z,15.90
2023-04-28T16:32:16.935Z,15.90
2023-04-28T16:34:45.443Z,15.84
2023-04-28T16:37:14.091Z,15.80
2023-04-28T16:39:42.518Z,15.80
2023-04-28T16:42:10.916Z,15.80
2023-04-28T16:44:39.289Z,15.80
2023-04-28T16:47:07.935Z,15.80
2023-04-28T16:49:36.449Z,15.74
2023-04-28T16:52:05.280Z,15.70
2023-04-28T16:54:34.151Z,15.70
2023-04-28T16:57:06.787Z,15.66
2023-04-28T16:59:35.547Z,15.60
2023-04-28T17:02:04.175Z,15.60
2023-04-28T17:04:33.072Z,15.60
2023-04-28T17:07:04.661Z,15.52
2023-04-28T17:09:33.521Z,15.50
2023-04-28T17:12:03.945Z,15.50
2023-04-28T17:14:32.752Z,15.50
2023-04-28T17:17:01.176Z,15.42
2023-04-28T17:19:29.606Z,15.40
2023-04-28T17:21:58.310Z,15.40
2023-04-28T17:24:26.754Z,15.40
2023-04-28T17:26:55.153Z,15.40
2023-04-28T17:29:23.816Z,15.30
2023-04-28T17:31:52.329Z,15.30
2023-04-28T17:34:20.798Z,15.30
2023-04-28T17:36:49.243Z,15.30
2023-04-28T17:39:17.814Z,15.30
2023-04-28T17:41:47.051Z,15.20
2023-04-28T17:44:15.484Z,15.20
2023-04-28T17:46:43.953Z,15.20
2023-04-28T17:49:12.380Z,15.20
2023-04-28T17:51:40.850Z,15.20
2023-04-28T17:54:09.777Z,15.10
2023-04-28T17:56:38.902Z,15.02
2023-04-28T17:59:09.008Z,15.00
2023-04-28T18:01:37.520Z,15.00
2023-04-28T18:04:05.909Z,14.90
2023-04-28T18:06:34.293Z,14.80
2023-04-28T18:09:02.635Z,14.70
2023-04-28T18:11:31.658Z,14.60
2023-04-28T18:13:59.999Z,14.50
2023-04-28T18:16:28.788Z,14.46
2023-04-28T18:18:57.191Z,14.40
2023-04-28T18:21:26.038Z,14.30
2023-04-28T18:23:54.399Z,14.24
2023-04-28T18:26:23.018Z,14.20
2023-04-28T18:28:51.385Z,14.20
2023-04-28T18:31:19.868Z,14.14
2023-04-28T18:33:48.253Z,14.10
2023-04-28T18:36:16.652Z,14.10
2023-04-28T18:38:45.082Z,14.10
2023-04-28T18:41:15.479Z,14.04
2023-04-28T18:43:44.599Z,14.02
2023-04-28T18:46:13.528Z,14.00
2023-04-28T18:48:42.349Z,14.00
2023-04-28T18:51:11.542Z,14.00
2023-04-28T18:53:39.991Z,14.00
2023-04-28T18:56:08.402Z,13.98
2023-04-28T18:58:41.613Z,13.90
2023-04-28T19:01:16.538Z,13.92
2023-04-28T19:03:45.270Z,13.90
2023-04-28T19:06:14.814Z,13.90
2023-04-28T19:08:44.894Z,13.84
2023-04-28T19:11:13.301Z,13.80
2023-04-28T19:13:44.739Z,13.80
2023-04-28T19:16:13.287Z,13.80
2023-04-28T19:18:42.387Z,13.80
2023-04-28T19:21:12.511Z,13.80
2023-04-28T19:23:41.138Z,13.80
2023-04-28T19:26:10.003Z,13.80
2023-04-28T19:28:38.458Z,13.76
2023-04-28T19:31:08.974Z,13.70
2023-04-28T19:33:37.444Z,13.70
2023-04-28T19:36:07.645Z,13.66
2023-04-28T19:38:37.448Z,13.60
2023-04-28T19:41:05.931Z,13.60
2023-04-28T19:43:34.308Z,13.60
2023-04-28T19:46:03.490Z,13.60
2023-04-28T19:48:31.959Z,13.58
2023-04-28T19:51:00.773Z,13.50
2023-04-28T19:53:29.291Z,13.50
2023-04-28T19:56:01.082Z,13.50
2023-04-28T19:58:29.469Z,13.50
2023-04-28T20:00:58.515Z,13.50
2023-04-28T20:03:27.327Z,13.46
2023-04-28T20:05:55.856Z,13.40
2023-04-28T20:08:25.810Z,13.38
2023-04-28T20:10:55.104Z,13.32
2023-04-28T20:13:23.624Z,13.30
2023-04-28T20:15:52.119Z,13.30
2023-04-28T20:18:20.701Z,13.30
2023-04-28T20:20:52.740Z,13.30
2023-04-28T20:23:21.157Z,13.30
2023-04-28T20:25:49.619Z,13.30
2023-04-28T20:28:18.004Z,13.30
2023-04-28T20:30:46.354Z,13.22
2023-04-28T20:33:16.207Z,13.20
2023-04-28T20:35:44.866Z,13.10
2023-04-28T20:38:13.630Z,13.10
2023-04-28T20:40:42.118Z,13.12
2023-04-28T20:43:10.952Z,13.18
2023-04-28T20:45:42.024Z,13.20
2023-04-28T20:48:10.951Z,13.20
2023-04-28T20:50:41.110Z,13.10
2023-04-28T20:53:09.886Z,13.10
2023-04-28T20:55:38.296Z,13.10
2023-04-28T20:58:07.615Z,13.08
2023-04-28T21:00:40.329Z,13.10
2023-04-28T21:03:15.350Z,13.10
2023-04-28T21:05:45.953Z,13.10
2023-04-28T21:08:14.547Z,13.10
2023-04-28T21:10:43.099Z,13.10
2023-04-28T21:13:13.165Z,13.10
2023-04-28T21:15:41.849Z,13.12
2023-04-28T21:18:10.437Z,13.12
2023-04-28T21:20:38.828Z,13.12
2023-04-28T21:23:07.802Z,13.10
2023-04-28T21:25:36.961Z,13.06
2023-04-28T21:28:05.385Z,13.00
2023-04-28T21:30:33.773Z,13.00
2023-04-28T21:33:02.617Z,13.00
2023-04-28T21:35:31.458Z,13.00
2023-04-28T21:37:59.885Z,13.00
2023-04-28T21:40:29.075Z,13.00
2023-04-28T21:42:57.382Z,13.02
2023-04-28T21:45:26.650Z,13.00
2023-04-28T21:47:56.287Z,13.00
2023-04-28T21:50:24.711Z,13.00
2023-04-28T21:52:53.083Z,13.00
2023-04-28T21:55:21.506Z,12.98
2023-04-28T21:57:49.844Z,12.90
2023-04-28T22:00:18.293Z,12.80
2023-04-28T22:02:46.653Z,12.80
2023-04-28T22:05:16.273Z,12.74
2023-04-28T22:07:44.912Z,12.70
2023-04-28T22:10:13.520Z,12.60
2023-04-28T22:12:41.946Z,12.46
2023-04-28T22:15:10.902Z,12.32
2023-04-28T22:17:39.512Z,12.30
2023-04-28T22:20:08.585Z,12.20
2023-04-28T22:22:37.011Z,12.20
2023-04-28T22:25:05.921Z,12.20
2023-04-28T22:27:34.310Z,12.20
2023-04-28T22:30:02.769Z,12.20
2023-04-28T22:32:31.768Z,12.22
2023-04-28T22:35:00.572Z,12.20
2023-04-28T22:37:28.918Z,12.22
2023-04-28T22:39:57.225Z,12.22
2023-04-28T22:42:25.581Z,12.22
2023-04-28T22:44:53.966Z,12.20
2023-04-28T22:47:22.434Z,12.14
2023-04-28T22:49:51.012Z,12.10
2023-04-28T22:52:20.659Z,12.06
2023-04-28T22:54:49.271Z,12.04
2023-04-28T22:57:17.715Z,12.00
2023-04-28T22:59:46.049Z,11.96
2023-04-28T23:02:14.466Z,11.90
2023-04-28T23:04:43.014Z,11.80
2023-04-28T23:07:11.539Z,11.80
2023-04-28T23:09:40.341Z,11.80
2023-04-28T23:12:08.868Z,11.72
2023-04-28T23:14:37.258Z,11.74
2023-04-28T23:17:05.775Z,11.80
2023-04-28T23:19:47.719Z,11.80
2023-04-28T23:22:27.195Z,11.80
2023-04-28T23:24:55.715Z,11.80
2023-04-28T23:27:24.158Z,11.80
2023-04-28T23:29:53.638Z,11.80
2023-04-28T23:32:22.164Z,11.80
2023-04-28T23:34:50.995Z,11.80
2023-04-28T23:37:19.386Z,11.72
2023-04-28T23:39:47.889Z,11.70
2023-04-28T23:42:16.465Z,11.70
2023-04-28T23:44:44.785Z,11.60
2023-04-28T23:47:14.671Z,11.50
2023-04-28T23:49:43.052Z,11.50
2023-04-28T23:52:11.539Z,11.40
2023-04-28T23:54:39.914Z,11.40
2023-04-28T23:57:08.257Z,11.40
2023-04-28T23:59:37.037Z,11.40
